sensor_id;sensor_type;location;lat;lon;timestamp;pressure;altitude;pressure_sealevel;temperature;humidity
6395;BME280;3230;42.588;23.358;2022-10-26T00:02:17;91537.41;;;13.54;87.14
6395;BME280;3230;42.588;23.358;2022-10-26T00:04:43;91534.69;;;13.59;86.78
6395;BME280;3230;42.588;23.358;2022-10-26T00:07:09;91528.16;;;13.56;86.93
6395;BME280;3230;42.588;23.358;2022-10-26T00:09:34;91530.78;;;13.56;87.20
6395;BME280;3230;42.588;23.358;2022-10-26T00:12:00;91530.47;;;13.63;87.70
6395;BME280;3230;42.588;23.358;2022-10-26T00:14:26;91531.25;;;13.64;88.20
6395;BME280;3230;42.588;23.358;2022-10-26T00:16:52;91526.72;;;13.69;88.90
6395;BME280;3230;42.588;23.358;2022-10-26T00:19:17;91523.78;;;13.71;89.72
6395;BME280;3230;42.588;23.358;2022-10-26T00:21:43;91526.72;;;13.69;89.79
6395;BME280;3230;42.588;23.358;2022-10-26T00:24:10;91530.34;;;13.73;89.73
6395;BME280;3230;42.588;23.358;2022-10-26T00:26:36;91525.97;;;13.64;90.29
6395;BME280;3230;42.588;23.358;2022-10-26T00:29:02;91524.84;;;13.70;90.16
6395;BME280;3230;42.588;23.358;2022-10-26T00:31:28;91525.66;;;13.70;90.49
6395;BME280;3230;42.588;23.358;2022-10-26T00:33:54;91535.16;;;13.66;91.47
6395;BME280;3230;42.588;23.358;2022-10-26T00:36:20;91530.41;;;13.68;90.86
6395;BME280;3230;42.588;23.358;2022-10-26T00:38:54;91531.97;;;13.69;91.10
6395;BME280;3230;42.588;23.358;2022-10-26T00:41:23;91536.97;;;13.71;90.61
6395;BME280;3230;42.588;23.358;2022-10-26T00:43:50;91535.44;;;13.65;90.93
6395;BME280;3230;42.588;23.358;2022-10-26T00:46:25;91531.47;;;13.67;90.74
6395;BME280;3230;42.588;23.358;2022-10-26T00:48:54;91530.47;;;13.63;90.93
6395;BME280;3230;42.588;23.358;2022-10-26T00:51:32;91531.06;;;13.55;90.89
6395;BME280;3230;42.588;23.358;2022-10-26T00:54:05;91531.13;;;13.50;90.50
6395;BME280;3230;42.588;23.358;2022-10-26T00:56:32;91525.69;;;13.41;90.78
6395;BME280;3230;42.588;23.358;2022-10-26T00:59:02;91533.75;;;13.50;90.81
6395;BME280;3230;42.588;23.358;2022-10-26T01:01:31;91524.59;;;13.42;90.99
6395;BME280;3230;42.588;23.358;2022-10-26T01:03:58;91523.06;;;13.41;90.73
6395;BME280;3230;42.588;23.358;2022-10-26T01:06:24;91526.47;;;13.41;90.54
6395;BME280;3230;42.588;23.358;2022-10-26T01:08:49;91525.69;;;13.41;90.63
6395;BME280;3230;42.588;23.358;2022-10-26T01:11:15;91519.38;;;13.37;90.54
6395;BME280;3230;42.588;23.358;2022-10-26T01:13:42;91523.59;;;13.38;90.33
6395;BME280;3230;42.588;23.358;2022-10-26T01:21:39;91524.38;;;13.38;90.04
6395;BME280;3230;42.588;23.358;2022-10-26T01:27:08;91526.44;;;13.12;90.18
6395;BME280;3230;42.588;23.358;2022-10-26T01:32:17;91528.38;;;13.01;89.49
6395;BME280;3230;42.588;23.358;2022-10-26T01:34:54;91528.00;;;12.78;90.39
6395;BME280;3230;42.588;23.358;2022-10-26T01:37:25;91527.81;;;12.70;90.96
6395;BME280;3230;42.588;23.358;2022-10-26T01:40:01;91518.72;;;12.52;91.70
6395;BME280;3230;42.588;23.358;2022-10-26T01:42:29;91522.75;;;12.39;92.91
6395;BME280;3230;42.588;23.358;2022-10-26T01:45:00;91519.44;;;12.23;93.54
6395;BME280;3230;42.588;23.358;2022-10-26T01:47:29;91511.81;;;12.21;93.08
6395;BME280;3230;42.588;23.358;2022-10-26T01:49:58;91511.59;;;12.12;93.45
6395;BME280;3230;42.588;23.358;2022-10-26T01:52:25;91510.59;;;11.98;94.44
6395;BME280;3230;42.588;23.358;2022-10-26T01:54:50;91508.25;;;11.91;94.35
6395;BME280;3230;42.588;23.358;2022-10-26T01:57:20;91509.03;;;11.92;94.46
6395;BME280;3230;42.588;23.358;2022-10-26T02:00:08;91510.13;;;11.80;94.91
6395;BME280;3230;42.588;23.358;2022-10-26T02:13:46;91503.16;;;11.45;96.96
6395;BME280;3230;42.588;23.358;2022-10-26T02:21:43;91511.22;;;11.64;95.83
6395;BME280;3230;42.588;23.358;2022-10-26T02:24:12;91516.72;;;11.67;95.56
6395;BME280;3230;42.588;23.358;2022-10-26T02:26:41;91512.56;;;11.61;95.55
6395;BME280;3230;42.588;23.358;2022-10-26T02:29:14;91512.84;;;11.55;95.71
6395;BME280;3230;42.588;23.358;2022-10-26T02:31:42;91517.88;;;11.35;96.65
6395;BME280;3230;42.588;23.358;2022-10-26T02:34:11;91514.19;;;11.36;96.90
6395;BME280;3230;42.588;23.358;2022-10-26T02:36:41;91514.22;;;11.31;97.23
6395;BME280;3230;42.588;23.358;2022-10-26T02:39:09;91515.25;;;11.20;97.66
6395;BME280;3230;42.588;23.358;2022-10-26T02:41:36;91519.22;;;11.17;98.05
6395;BME280;3230;42.588;23.358;2022-10-26T02:46:37;91521.31;;;11.05;98.89
6395;BME280;3230;42.588;23.358;2022-10-26T02:49:03;91512.41;;;10.96;99.06
6395;BME280;3230;42.588;23.358;2022-10-26T02:51:41;91515.56;;;10.93;99.33
6395;BME280;3230;42.588;23.358;2022-10-26T02:54:18;91518.19;;;10.87;99.77
6395;BME280;3230;42.588;23.358;2022-10-26T02:56:59;91517.94;;;10.89;100.00
6395;BME280;3230;42.588;23.358;2022-10-26T02:59:29;91520.81;;;10.87;100.00
6395;BME280;3230;42.588;23.358;2022-10-26T03:01:57;91516.63;;;10.86;100.00
6395;BME280;3230;42.588;23.358;2022-10-26T03:04:32;91520.81;;;10.87;100.00
6395;BME280;3230;42.588;23.358;2022-10-26T03:06:59;91519.75;;;10.78;100.00
6395;BME280;3230;42.588;23.358;2022-10-26T03:09:24;91521.09;;;10.70;100.00
6395;BME280;3230;42.588;23.358;2022-10-26T03:11:50;91518.72;;;10.59;100.00
6395;BME280;3230;42.588;23.358;2022-10-26T03:14:16;91520.25;;;10.49;100.00
6395;BME280;3230;42.588;23.358;2022-10-26T03:16:41;91528.38;;;10.48;100.00
6395;BME280;3230;42.588;23.358;2022-10-26T03:19:07;91537.81;;;10.49;100.00
6395;BME280;3230;42.588;23.358;2022-10-26T03:21:32;91535.19;;;10.44;100.00
6395;BME280;3230;42.588;23.358;2022-10-26T03:23:58;91534.38;;;10.33;100.00
6395;BME280;3230;42.588;23.358;2022-10-26T03:26:23;91539.06;;;10.26;100.00
6395;BME280;3230;42.588;23.358;2022-10-26T03:28:49;91533.81;;;10.31;100.00
6395;BME280;3230;42.588;23.358;2022-10-26T03:31:14;91526.75;;;10.31;100.00
6395;BME280;3230;42.588;23.358;2022-10-26T03:33:40;91532.25;;;10.35;100.00
6395;BME280;3230;42.588;23.358;2022-10-26T03:36:06;91541.16;;;10.29;100.00
6395;BME280;3230;42.588;23.358;2022-10-26T03:38:32;91535.38;;;10.21;100.00
6395;BME280;3230;42.588;23.358;2022-10-26T03:40:57;91549.31;;;10.37;100.00
6395;BME280;3230;42.588;23.358;2022-10-26T03:43:23;91537.50;;;10.35;100.00
6395;BME280;3230;42.588;23.358;2022-10-26T03:45:48;91533.84;;;10.36;100.00
6395;BME280;3230;42.588;23.358;2022-10-26T03:48:13;91541.69;;;10.26;100.00
6395;BME280;3230;42.588;23.358;2022-10-26T03:50:39;91541.91;;;10.19;100.00
6395;BME280;3230;42.588;23.358;2022-10-26T03:53:04;91538.47;;;10.08;100.00
6395;BME280;3230;42.588;23.358;2022-10-26T03:55:30;91541.84;;;9.98;100.00
6395;BME280;3230;42.588;23.358;2022-10-26T03:57:55;91536.38;;;10.05;100.00
6395;BME280;3230;42.588;23.358;2022-10-26T04:00:21;91540.81;;;9.94;100.00
6395;BME280;3230;42.588;23.358;2022-10-26T04:02:53;91546.31;;;9.98;100.00
6395;BME280;3230;42.588;23.358;2022-10-26T04:05:19;91552.59;;;10.02;100.00
6395;BME280;3230;42.588;23.358;2022-10-26T04:07:54;91545.78;;;10.01;100.00
6395;BME280;3230;42.588;23.358;2022-10-26T04:10:20;91543.69;;;9.98;100.00
6395;BME280;3230;42.588;23.358;2022-10-26T04:12:46;91543.69;;;9.98;100.00
6395;BME280;3230;42.588;23.358;2022-10-26T04:15:13;91550.44;;;9.88;100.00
6395;BME280;3230;42.588;23.358;2022-10-26T04:17:39;91551.00;;;9.96;100.00
6395;BME280;3230;42.588;23.358;2022-10-26T04:20:04;91551.00;;;9.90;100.00
6395;BME280;3230;42.588;23.358;2022-10-26T04:22:30;91554.38;;;9.86;100.00
6395;BME280;3230;42.588;23.358;2022-10-26T04:24:55;91544.66;;;9.81;100.00
6395;BME280;3230;42.588;23.358;2022-10-26T04:27:21;91548.84;;;9.82;100.00
6395;BME280;3230;42.588;23.358;2022-10-26T04:29:46;91548.84;;;9.82;100.00
6395;BME280;3230;42.588;23.358;2022-10-26T04:32:12;91553.81;;;9.79;100.00
6395;BME280;3230;42.588;23.358;2022-10-26T04:34:37;91546.31;;;9.92;100.00
6395;BME280;3230;42.588;23.358;2022-10-26T04:37:03;91554.16;;;9.92;100.00
6395;BME280;3230;42.588;23.358;2022-10-26T04:39:28;91551.53;;;9.92;100.00
6395;BME280;3230;42.588;23.358;2022-10-26T04:41:53;91552.03;;;9.95;100.00
6395;BME280;3230;42.588;23.358;2022-10-26T04:44:19;91552.59;;;9.97;100.00
6395;BME280;3230;42.588;23.358;2022-10-26T04:46:44;91554.94;;;9.98;100.00
6395;BME280;3230;42.588;23.358;2022-10-26T04:49:10;91555.75;;;9.99;100.00
6395;BME280;3230;42.588;23.358;2022-10-26T04:51:35;91554.16;;;9.92;100.00
6395;BME280;3230;42.588;23.358;2022-10-26T04:54:01;91557.28;;;9.95;100.00
6395;BME280;3230;42.588;23.358;2022-10-26T04:56:28;91563.06;;;10.02;100.00
6395;BME280;3230;42.588;23.358;2022-10-26T04:58:53;91560.19;;;10.03;100.00
6395;BME280;3230;42.588;23.358;2022-10-26T05:01:19;91564.09;;;9.96;100.00
6395;BME280;3230;42.588;23.358;2022-10-26T05:03:48;91565.16;;;10.00;100.00
6395;BME280;3230;42.588;23.358;2022-10-26T05:06:13;91561.75;;;9.94;100.00
6395;BME280;3230;42.588;23.358;2022-10-26T05:08:39;91564.06;;;9.85;100.00
6395;BME280;3230;42.588;23.358;2022-10-26T05:11:04;91567.25;;;9.98;100.00
6395;BME280;3230;42.588;23.358;2022-10-26T05:13:30;91563.66;;;10.19;100.00
6395;BME280;3230;42.588;23.358;2022-10-26T05:15:55;91558.50;;;10.45;100.00
6395;BME280;3230;42.588;23.358;2022-10-26T05:18:20;91565.38;;;10.72;100.00
6395;BME280;3230;42.588;23.358;2022-10-26T05:20:46;91561.72;;;10.94;100.00
6395;BME280;3230;42.588;23.358;2022-10-26T05:23:14;91567.97;;;11.39;100.00
6395;BME280;3230;42.588;23.358;2022-10-26T05:25:43;91573.66;;;11.77;100.00
6395;BME280;3230;42.588;23.358;2022-10-26T05:28:10;91577.72;;;12.25;100.00
6395;BME280;3230;42.588;23.358;2022-10-26T05:30:38;91584.13;;;12.03;100.00
6395;BME280;3230;42.588;23.358;2022-10-26T05:33:03;91590.91;;;12.14;99.97
6395;BME280;3230;42.588;23.358;2022-10-26T05:35:30;91589.44;;;12.53;99.95
6395;BME280;3230;42.588;23.358;2022-10-26T05:37:56;91602.78;;;13.41;98.10
6395;BME280;3230;42.588;23.358;2022-10-26T05:40:21;91602.44;;;14.31;94.25
6395;BME280;3230;42.588;23.358;2022-10-26T05:42:47;91614.50;;;15.19;90.26
6395;BME280;3230;42.588;23.358;2022-10-26T05:45:13;91627.06;;;15.93;86.48
6395;BME280;3230;42.588;23.358;2022-10-26T05:47:39;91634.53;;;16.75;83.29
6395;BME280;3230;42.588;23.358;2022-10-26T05:50:05;91640.78;;;18.20;75.40
6395;BME280;3230;42.588;23.358;2022-10-26T05:52:40;91650.09;;;17.86;74.44
6395;BME280;3230;42.588;23.358;2022-10-26T05:55:11;91637.94;;;17.40;75.91
6395;BME280;3230;42.588;23.358;2022-10-26T05:57:37;91648.22;;;17.41;75.92
6395;BME280;3230;42.588;23.358;2022-10-26T06:00:11;91648.41;;;17.68;74.58
6395;BME280;3230;42.588;23.358;2022-10-26T06:05:57;91661.97;;;17.66;73.43
6395;BME280;3230;42.588;23.358;2022-10-26T06:08:25;91654.09;;;17.16;75.88
6395;BME280;3230;42.588;23.358;2022-10-26T06:10:52;91660.75;;;17.13;75.02
6395;BME280;3230;42.588;23.358;2022-10-26T06:13:19;91662.09;;;16.60;77.58
6395;BME280;3230;42.588;23.358;2022-10-26T06:24:02;91666.19;;;15.58;82.74
6395;BME280;3230;42.588;23.358;2022-10-26T06:32:14;91657.22;;;15.02;85.62
6395;BME280;3230;42.588;23.358;2022-10-26T06:34:44;91659.34;;;14.81;86.37
6395;BME280;3230;42.588;23.358;2022-10-26T06:37:11;91665.38;;;15.06;86.22
6395;BME280;3230;42.588;23.358;2022-10-26T06:39:42;91667.41;;;15.09;85.83
6395;BME280;3230;42.588;23.358;2022-10-26T06:42:10;91666.00;;;14.97;87.79
6395;BME280;3230;42.588;23.358;2022-10-26T06:44:36;91664.06;;;15.22;86.50
6395;BME280;3230;42.588;23.358;2022-10-26T06:49:55;91658.34;;;15.15;87.06
6395;BME280;3230;42.588;23.358;2022-10-26T06:52:31;91667.41;;;15.09;86.42
6395;BME280;3230;42.588;23.358;2022-10-26T06:54:58;91660.06;;;15.25;86.41
6395;BME280;3230;42.588;23.358;2022-10-26T06:57:28;91659.00;;;15.26;85.49
6395;BME280;3230;42.588;23.358;2022-10-26T06:59:59;91668.44;;;15.84;83.58
6395;BME280;3230;42.588;23.358;2022-10-26T07:02:26;91677.03;;;16.37;81.75
6395;BME280;3230;42.588;23.358;2022-10-26T07:04:52;91672.25;;;17.45;78.32
6395;BME280;3230;42.588;23.358;2022-10-26T07:07:22;91679.56;;;17.85;79.25
6395;BME280;3230;42.588;23.358;2022-10-26T07:09:49;91685.47;;;18.04;78.47
6395;BME280;3230;42.588;23.358;2022-10-26T07:12:15;91690.97;;;18.08;78.49
6395;BME280;3230;42.588;23.358;2022-10-26T07:14:41;91690.91;;;18.94;76.82
6395;BME280;3230;42.588;23.358;2022-10-26T07:17:07;91697.44;;;20.63;69.62
6395;BME280;3230;42.588;23.358;2022-10-26T07:19:33;91698.22;;;21.96;64.45
6395;BME280;3230;42.588;23.358;2022-10-26T07:21:58;91703.75;;;23.16;59.57
6395;BME280;3230;42.588;23.358;2022-10-26T07:24:25;91683.16;;;24.23;54.98
6395;BME280;3230;42.588;23.358;2022-10-26T07:26:53;91689.56;;;25.11;51.00
6395;BME280;3230;42.588;23.358;2022-10-26T07:29:19;91682.56;;;24.74;51.01
6395;BME280;3230;42.588;23.358;2022-10-26T07:31:44;91678.06;;;25.10;50.27
6395;BME280;3230;42.588;23.358;2022-10-26T07:34:10;91675.91;;;26.26;47.84
6395;BME280;3230;42.588;23.358;2022-10-26T07:36:35;91680.53;;;26.92;45.38
6395;BME280;3230;42.588;23.358;2022-10-26T07:39:05;91680.78;;;26.40;46.05
6395;BME280;3230;42.588;23.358;2022-10-26T07:41:31;91678.28;;;26.51;44.95
6395;BME280;3230;42.588;23.358;2022-10-26T07:43:56;91683.06;;;26.81;45.26
6395;BME280;3230;42.588;23.358;2022-10-26T07:46:22;91677.72;;;27.08;43.87
6395;BME280;3230;42.588;23.358;2022-10-26T07:48:47;91681.03;;;27.74;41.18
6395;BME280;3230;42.588;23.358;2022-10-26T07:51:13;91672.22;;;28.42;40.01
6395;BME280;3230;42.588;23.358;2022-10-26T07:53:39;91677.00;;;29.46;36.49
6395;BME280;3230;42.588;23.358;2022-10-26T07:56:05;91678.03;;;28.82;37.69
6395;BME280;3230;42.588;23.358;2022-10-26T07:58:31;91681.19;;;29.36;36.07
6395;BME280;3230;42.588;23.358;2022-10-26T08:00:56;91682.47;;;27.41;37.98
6395;BME280;3230;42.588;23.358;2022-10-26T08:03:22;91680.06;;;28.20;37.46
6395;BME280;3230;42.588;23.358;2022-10-26T08:05:48;91680.25;;;29.73;32.15
6395;BME280;3230;42.588;23.358;2022-10-26T08:08:20;91682.59;;;29.78;32.60
6395;BME280;3230;42.588;23.358;2022-10-26T08:10:46;91670.94;;;29.11;34.03
6395;BME280;3230;42.588;23.358;2022-10-26T08:13:12;91674.69;;;28.58;36.08
6395;BME280;3230;42.588;23.358;2022-10-26T08:15:38;91675.56;;;28.32;34.39
6395;BME280;3230;42.588;23.358;2022-10-26T08:18:04;91676.13;;;28.48;34.50
6395;BME280;3230;42.588;23.358;2022-10-26T08:20:29;91684.03;;;29.58;30.30
6395;BME280;3230;42.588;23.358;2022-10-26T08:22:56;91683.16;;;29.43;31.13
6395;BME280;3230;42.588;23.358;2022-10-26T08:25:21;91681.06;;;29.25;29.80
6395;BME280;3230;42.588;23.358;2022-10-26T08:27:47;91686.03;;;29.72;29.58
6395;BME280;3230;42.588;23.358;2022-10-26T08:30:12;91675.25;;;29.19;29.28
6395;BME280;3230;42.588;23.358;2022-10-26T08:32:38;91677.06;;;28.67;31.60
6395;BME280;3230;42.588;23.358;2022-10-26T08:35:04;91672.13;;;26.93;33.24
6395;BME280;3230;42.588;23.358;2022-10-26T08:37:29;91669.56;;;26.15;35.74
6395;BME280;3230;42.588;23.358;2022-10-26T08:39:55;91664.16;;;24.72;36.72
6395;BME280;3230;42.588;23.358;2022-10-26T08:42:44;91663.09;;;24.17;37.71
6395;BME280;3230;42.588;23.358;2022-10-26T08:45:27;91669.00;;;22.79;40.09
6395;BME280;3230;42.588;23.358;2022-10-26T08:47:58;91662.84;;;22.20;43.96
6395;BME280;3230;42.588;23.358;2022-10-26T08:50:32;91665.44;;;21.11;47.28
6395;BME280;3230;42.588;23.358;2022-10-26T08:53:06;68517.97;;;20.83;50.10
6395;BME280;3230;42.588;23.358;2022-10-26T08:56:00;91672.41;;;20.47;53.33
6395;BME280;3230;42.588;23.358;2022-10-26T08:58:35;91671.09;;;20.14;54.22
6395;BME280;3230;42.588;23.358;2022-10-26T09:01:03;91668.44;;;19.79;55.47
6395;BME280;3230;42.588;23.358;2022-10-26T09:03:29;91678.16;;;19.40;60.83
6395;BME280;3230;42.588;23.358;2022-10-26T09:12:00;91682.63;;;19.04;62.54
6395;BME280;3230;42.588;23.358;2022-10-26T09:16:54;91677.34;;;19.13;59.69
6395;BME280;3230;42.588;23.358;2022-10-26T09:19:33;91676.72;;;19.07;60.63
6395;BME280;3230;42.588;23.358;2022-10-26T09:24:38;91674.97;;;18.94;62.66
6395;BME280;3230;42.588;23.358;2022-10-26T09:27:28;91672.06;;;18.81;63.09
6395;BME280;3230;42.588;23.358;2022-10-26T09:30:10;91675.38;;;18.78;60.65
6395;BME280;3230;42.588;23.358;2022-10-26T09:32:40;91669.53;;;18.67;64.27
6395;BME280;3230;42.588;23.358;2022-10-26T09:35:21;91667.66;;;18.68;63.80
6395;BME280;3230;42.588;23.358;2022-10-26T09:38:08;91669.69;;;18.62;65.23
6395;BME280;3230;42.588;23.358;2022-10-26T09:40:50;91675.78;;;18.72;65.34
6395;BME280;3230;42.588;23.358;2022-10-26T09:43:27;91677.34;;;18.64;64.73
6395;BME280;3230;42.588;23.358;2022-10-26T09:45:54;91674.50;;;18.51;63.88
6395;BME280;3230;42.588;23.358;2022-10-26T09:50:57;91665.28;;;18.58;64.25
6395;BME280;3230;42.588;23.358;2022-10-26T09:53:24;91675.38;;;18.78;64.35
6395;BME280;3230;42.588;23.358;2022-10-26T09:56:03;91675.50;;;18.73;64.73
6395;BME280;3230;42.588;23.358;2022-10-26T09:58:34;91669.84;;;18.66;64.61
6395;BME280;3230;42.588;23.358;2022-10-26T10:01:00;91672.84;;;18.73;64.79
6395;BME280;3230;42.588;23.358;2022-10-26T10:03:30;91666.00;;;18.81;63.57
6395;BME280;3230;42.588;23.358;2022-10-26T10:06:22;91661.44;;;18.81;62.83
6395;BME280;3230;42.588;23.358;2022-10-26T10:11:49;91660.31;;;19.05;62.45
6395;BME280;3230;42.588;23.358;2022-10-26T10:14:59;91658.38;;;18.88;62.73
6395;BME280;3230;42.588;23.358;2022-10-26T10:17:22;91660.19;;;18.70;64.14
6395;BME280;3230;42.588;23.358;2022-10-26T10:19:48;91652.69;;;18.72;65.65
6395;BME280;3230;42.588;23.358;2022-10-26T10:24:41;91654.66;;;18.49;65.09
6395;BME280;3230;42.588;23.358;2022-10-26T10:29:48;91645.63;;;18.59;64.47
6395;BME280;3230;42.588;23.358;2022-10-26T10:32:20;91641.13;;;18.68;65.14
6395;BME280;3230;42.588;23.358;2022-10-26T10:34:47;91642.75;;;18.86;63.57
6395;BME280;3230;42.588;23.358;2022-10-26T10:37:30;91638.38;;;18.91;62.64
6395;BME280;3230;42.588;23.358;2022-10-26T10:40:00;91634.50;;;19.06;63.57
6395;BME280;3230;42.588;23.358;2022-10-26T10:42:30;91645.31;;;19.09;63.88
6395;BME280;3230;42.588;23.358;2022-10-26T10:44:56;91638.91;;;19.10;63.90
6395;BME280;3230;42.588;23.358;2022-10-26T10:47:31;91636.41;;;19.14;63.85
6395;BME280;3230;42.588;23.358;2022-10-26T10:50:01;91637.50;;;19.22;64.53
6395;BME280;3230;42.588;23.358;2022-10-26T10:52:29;91632.50;;;19.29;63.93
6395;BME280;3230;42.588;23.358;2022-10-26T10:55:07;91629.84;;;19.20;64.05
6395;BME280;3230;42.588;23.358;2022-10-26T11:00:19;91622.03;;;19.32;64.26
6395;BME280;3230;42.588;23.358;2022-10-26T11:08:20;91616.09;;;19.53;63.77
6395;BME280;3230;42.588;23.358;2022-10-26T11:11:17;91614.38;;;19.48;63.55
6395;BME280;3230;42.588;23.358;2022-10-26T11:16:32;91615.47;;;19.47;63.28
6395;BME280;3230;42.588;23.358;2022-10-26T11:19:21;91619.53;;;19.36;63.44
6395;BME280;3230;42.588;23.358;2022-10-26T11:21:52;91616.88;;;19.36;63.68
6395;BME280;3230;42.588;23.358;2022-10-26T11:24:42;91617.50;;;19.33;63.61
6395;BME280;3230;42.588;23.358;2022-10-26T11:35:34;91617.19;;;19.43;64.21
6395;BME280;3230;42.588;23.358;2022-10-26T11:38:11;91609.81;;;19.66;64.55
6395;BME280;3230;42.588;23.358;2022-10-26T11:45:36;91610.28;;;19.69;64.49
6395;BME280;3230;42.588;23.358;2022-10-26T11:48:19;91603.56;;;19.89;64.07
6395;BME280;3230;42.588;23.358;2022-10-26T11:50:55;91610.09;;;20.09;62.99
6395;BME280;3230;42.588;23.358;2022-10-26T11:53:31;91608.25;;;19.83;63.07
6395;BME280;3230;42.588;23.358;2022-10-26T11:56:02;91607.94;;;19.85;63.13
6395;BME280;3230;42.588;23.358;2022-10-26T11:58:30;91605.75;;;19.87;63.61
6395;BME280;3230;42.588;23.358;2022-10-26T12:01:03;91601.81;;;19.75;62.44
6395;BME280;3230;42.588;23.358;2022-10-26T12:03:35;91603.88;;;19.78;62.19
6395;BME280;3230;42.588;23.358;2022-10-26T12:06:02;91593.56;;;19.59;63.30
6395;BME280;3230;42.588;23.358;2022-10-26T12:09:07;91596.66;;;19.79;62.84
6395;BME280;3230;42.588;23.358;2022-10-26T12:22:33;91593.72;;;19.63;59.78
6395;BME280;3230;42.588;23.358;2022-10-26T12:27:53;91595.00;;;19.48;59.13
6395;BME280;3230;42.588;23.358;2022-10-26T12:35:34;91596.69;;;19.70;56.00
6395;BME280;3230;42.588;23.358;2022-10-26T12:38:03;91592.63;;;19.64;55.77
6395;BME280;3230;42.588;23.358;2022-10-26T12:40:47;91597.19;;;19.55;54.43
6395;BME280;3230;42.588;23.358;2022-10-26T12:45:39;91594.38;;;19.60;54.42
6395;BME280;3230;42.588;23.358;2022-10-26T12:48:23;91602.47;;;19.72;53.71
6395;BME280;3230;42.588;23.358;2022-10-26T12:50:50;91601.56;;;19.68;53.36
6395;BME280;3230;42.588;23.358;2022-10-26T12:53:19;91599.19;;;19.66;52.90
6395;BME280;3230;42.588;23.358;2022-10-26T13:08:49;91602.13;;;19.82;52.06
6395;BME280;3230;42.588;23.358;2022-10-26T13:11:18;91606.53;;;19.78;51.32
6395;BME280;3230;42.588;23.358;2022-10-26T13:13:52;91607.81;;;19.55;51.84
6395;BME280;3230;42.588;23.358;2022-10-26T13:16:18;91616.56;;;19.64;51.58
6395;BME280;3230;42.588;23.358;2022-10-26T13:18:44;91614.69;;;19.64;52.37
6395;BME280;3230;42.588;23.358;2022-10-26T13:21:17;91611.56;;;19.62;52.03
6395;BME280;3230;42.588;23.358;2022-10-26T13:26:14;91607.97;;;19.67;50.83
6395;BME280;3230;42.588;23.358;2022-10-26T13:33:44;91613.75;;;19.52;50.88
6395;BME280;3230;42.588;23.358;2022-10-26T13:36:32;91609.84;;;19.49;50.69
6395;BME280;3230;42.588;23.358;2022-10-26T13:39:03;91607.19;;;19.40;49.53
6395;BME280;3230;42.588;23.358;2022-10-26T13:41:35;91618.13;;;19.30;48.39
6395;BME280;3230;42.588;23.358;2022-10-26T13:44:05;91617.97;;;19.35;48.75
6395;BME280;3230;42.588;23.358;2022-10-26T13:46:34;91616.88;;;19.18;49.05
6395;BME280;3230;42.588;23.358;2022-10-26T13:49:10;91620.94;;;19.25;48.74
6395;BME280;3230;42.588;23.358;2022-10-26T13:51:42;91614.38;;;19.13;48.96
6395;BME280;3230;42.588;23.358;2022-10-26T13:59:25;91628.59;;;19.00;48.19
6395;BME280;3230;42.588;23.358;2022-10-26T14:02:05;91628.59;;;19.00;48.69
6395;BME280;3230;42.588;23.358;2022-10-26T14:04:31;91633.06;;;18.91;48.53
6395;BME280;3230;42.588;23.358;2022-10-26T14:06:56;91635.56;;;18.87;48.10
6395;BME280;3230;42.588;23.358;2022-10-26T14:09:22;91640.53;;;18.80;48.38
6395;BME280;3230;42.588;23.358;2022-10-26T14:14:25;91642.69;;;18.69;48.66
6395;BME280;3230;42.588;23.358;2022-10-26T14:16:52;91635.78;;;18.59;48.81
6395;BME280;3230;42.588;23.358;2022-10-26T14:19:25;91638.69;;;18.40;49.48
6395;BME280;3230;42.588;23.358;2022-10-26T14:21:52;91638.78;;;18.26;50.23
6395;BME280;3230;42.588;23.358;2022-10-26T14:24:29;91635.63;;;18.15;49.57
6395;BME280;3230;42.588;23.358;2022-10-26T14:26:55;91639.00;;;18.07;50.14
6395;BME280;3230;42.588;23.358;2022-10-26T14:29:23;91637.69;;;17.96;50.71
6395;BME280;3230;42.588;23.358;2022-10-26T14:31:50;91635.03;;;17.73;51.70
6395;BME280;3230;42.588;23.358;2022-10-26T14:34:16;91632.81;;;17.66;50.83
6395;BME280;3230;42.588;23.358;2022-10-26T14:39:41;91635.16;;;17.45;52.89
6395;BME280;3230;42.588;23.358;2022-10-26T14:42:16;91636.97;;;17.36;53.28
6395;BME280;3230;42.588;23.358;2022-10-26T14:44:45;91638.38;;;17.19;54.09
6395;BME280;3230;42.588;23.358;2022-10-26T14:47:22;91636.75;;;17.09;54.30
6395;BME280;3230;42.588;23.358;2022-10-26T14:49:48;91645.50;;;16.96;53.73
6395;BME280;3230;42.588;23.358;2022-10-26T14:52:22;91642.75;;;16.87;54.78
6395;BME280;3230;42.588;23.358;2022-10-26T14:55:03;91636.09;;;16.76;54.70
6395;BME280;3230;42.588;23.358;2022-10-26T14:57:37;91640.81;;;16.65;55.26
6395;BME280;3230;42.588;23.358;2022-10-26T15:02:37;91657.06;;;16.58;55.47
6395;BME280;3230;42.588;23.358;2022-10-26T15:07:48;91642.59;;;16.42;56.20
6395;BME280;3230;42.588;23.358;2022-10-26T15:13:24;91643.06;;;16.16;58.31
6395;BME280;3230;42.588;23.358;2022-10-26T15:15:54;91645.31;;;16.09;58.91
6395;BME280;3230;42.588;23.358;2022-10-26T15:20:49;91649.44;;;15.82;59.81
6395;BME280;3230;42.588;23.358;2022-10-26T15:23:15;91658.16;;;15.82;60.33
6395;BME280;3230;42.588;23.358;2022-10-26T15:25:50;91666.50;;;15.71;60.14
6395;BME280;3230;42.588;23.358;2022-10-26T15:31:01;91667.25;;;15.57;60.55
6395;BME280;3230;42.588;23.358;2022-10-26T15:33:28;91665.22;;;15.54;60.87
6395;BME280;3230;42.588;23.358;2022-10-26T15:36:13;91669.47;;;15.50;60.69
6395;BME280;3230;42.588;23.358;2022-10-26T15:38:40;91669.94;;;15.38;61.09
6395;BME280;3230;42.588;23.358;2022-10-26T15:43:39;91684.19;;;15.18;61.56
6395;BME280;3230;42.588;23.358;2022-10-26T15:46:04;91678.56;;;15.06;62.17
6395;BME280;3230;42.588;23.358;2022-10-26T15:48:30;91679.41;;;15.01;61.95
6395;BME280;3230;42.588;23.358;2022-10-26T15:50:58;91679.81;;;14.89;62.22
6395;BME280;3230;42.588;23.358;2022-10-26T15:53:24;91690.72;;;14.82;62.42
6395;BME280;3230;42.588;23.358;2022-10-26T15:55:57;91694.72;;;14.80;62.45
6395;BME280;3230;42.588;23.358;2022-10-26T15:58:24;91698.50;;;14.74;62.67
6395;BME280;3230;42.588;23.358;2022-10-26T16:00:50;91703.81;;;14.68;62.05
6395;BME280;3230;42.588;23.358;2022-10-26T16:03:19;91704.88;;;14.67;61.79
6395;BME280;3230;42.588;23.358;2022-10-26T16:05:45;91701.50;;;14.62;61.12
6395;BME280;3230;42.588;23.358;2022-10-26T16:08:15;91705.50;;;14.54;61.11